Peru, Massachusetts
Current Conditions -  °F | °C
As of 1:24 PM on Sunday 21 Dec 2014 (Local Time) from KPSF Reporting Station
Haze Haze  
Wind Chill: 30°   Ceiling: 3200
Heat Index: 30°   Visibility: 5mi
Dew Point: 27°   Wind: 0mph
Humidity: 88%   Direction: NA
Pressure: 30.23"   Gusts: NA
Location:  42.4301°N, 73.0667°W
Report Text: KPSF 211824Z AUTO 00000KT 5SM BR SCT008 BKN032 OVC040 M01/M03 A3023 RMK AO2 SNE11 P0000 T10111028
Loading
Personal Weather Stations






























Interactive Weather Map New forecast layout! Learn more

10-Day Weather Forecast

Advertisements
Track Severe Weather on mobile